Terminal Aerodrome Forecast
Issued by NWS

Home | Current Version | Previous Version | Text Only | Print | Product List | Glossary On
Versions: 1 2 3 4 5 6 7 8 9 10 11 12 13 14 15 16 17 18 19 20 21 22 23 24 25 26
216
FTUS43 KBIS 261128
TAFMOT
TAF
KMOT 261128Z 2612/2712 23007KT P6SM SKC
     FM261500 21005KT P6SM SCT070
     FM262100 18007KT P6SM OVC030
     FM270400 31006KT P6SM BKN035=

USA.gov is the U.S. government's official web portal to all federal, state and local government web resources and services.